createdAt,value
2018-06-11T00:00:11.846Z,7.17
2018-06-11T00:02:40.383Z,6.90
2018-06-11T00:05:08.926Z,7.87
2018-06-11T00:07:37.493Z,9.37
2018-06-11T00:10:06.090Z,7.00
2018-06-11T00:12:34.591Z,8.37
2018-06-11T00:15:03.092Z,7.00
2018-06-11T00:17:31.673Z,9.40
2018-06-11T00:20:00.222Z,8.67
2018-06-11T00:22:28.789Z,7.93
2018-06-11T00:24:57.581Z,8.27
2018-06-11T00:27:26.164Z,7.40
2018-06-11T00:29:54.754Z,7.93
2018-06-11T00:32:23.317Z,7.10
2018-06-11T00:34:51.853Z,8.13
2018-06-11T00:37:20.389Z,7.27
2018-06-11T00:39:48.915Z,7.30
2018-06-11T00:42:17.440Z,7.30
2018-06-11T00:44:45.983Z,6.43
2018-06-11T00:47:14.191Z,5.97
2018-06-11T00:49:42.731Z,6.27
2018-06-11T00:52:10.916Z,6.60
2018-06-11T00:54:39.471Z,6.80
2018-06-11T00:57:07.978Z,5.90
2018-06-11T00:59:36.477Z,6.57
2018-06-11T01:02:05.067Z,6.10
2018-06-11T01:04:33.617Z,6.53
2018-06-11T01:07:02.153Z,6.37
2018-06-11T01:09:30.714Z,6.40
2018-06-11T01:11:59.213Z,6.87
2018-06-11T01:14:27.783Z,7.20
2018-06-11T01:16:56.298Z,8.00
2018-06-11T01:19:24.847Z,7.13
2018-06-11T01:21:53.534Z,8.03
2018-06-11T01:24:22.123Z,6.50
2018-06-11T01:26:50.737Z,7.87
2018-06-11T01:29:19.301Z,7.73
2018-06-11T01:31:47.875Z,8.30
2018-06-11T01:34:16.415Z,7.00
2018-06-11T01:36:44.930Z,6.80
2018-06-11T01:39:13.469Z,7.30
2018-06-11T01:41:42.013Z,7.37
2018-06-11T01:44:10.559Z,7.30
2018-06-11T01:46:39.106Z,7.50
2018-06-11T01:49:07.603Z,7.00
2018-06-11T01:51:36.137Z,7.33
2018-06-11T01:54:04.727Z,7.40
2018-06-11T01:56:33.292Z,7.53
2018-06-11T01:59:01.796Z,6.70
2018-06-11T02:01:30.381Z,6.77
2018-06-11T02:03:58.899Z,6.63
2018-06-11T02:06:27.383Z,7.00
2018-06-11T02:08:55.974Z,6.13
2018-06-11T02:11:24.520Z,6.97
2018-06-11T02:13:53.056Z,9.07
2018-06-11T02:16:21.633Z,7.60
2018-06-11T02:18:50.207Z,7.53
2018-06-11T02:21:18.751Z,7.70
2018-06-11T02:23:47.389Z,8.07
2018-06-11T02:26:15.951Z,7.70
2018-06-11T02:28:44.480Z,7.93
2018-06-11T02:31:13.077Z,8.60
2018-06-11T02:33:41.573Z,8.37
2018-06-11T02:36:10.124Z,7.10
2018-06-11T02:38:38.681Z,6.40
2018-06-11T02:41:07.297Z,7.20
2018-06-11T02:43:35.847Z,6.20
2018-06-11T02:46:04.414Z,5.87
2018-06-11T02:48:32.982Z,6.67
2018-06-11T02:51:01.495Z,6.73
2018-06-11T02:53:30.069Z,7.00
2018-06-11T02:55:58.584Z,6.63
2018-06-11T02:58:27.138Z,6.00
2018-06-11T03:00:55.658Z,5.60
2018-06-11T03:03:24.184Z,6.70
2018-06-11T03:05:52.728Z,5.70
2018-06-11T03:08:21.263Z,6.20
2018-06-11T03:10:49.787Z,6.80
2018-06-11T03:13:18.308Z,6.00
2018-06-11T03:15:46.875Z,7.07
2018-06-11T03:18:15.447Z,7.00
2018-06-11T03:20:43.994Z,8.07
2018-06-11T03:23:12.529Z,6.67
2018-06-11T03:25:41.035Z,7.70
2018-06-11T03:28:09.549Z,7.50
2018-06-11T03:30:38.154Z,6.60
2018-06-11T03:33:06.689Z,7.50
2018-06-11T03:35:35.216Z,7.23
2018-06-11T03:38:03.776Z,6.87
2018-06-11T03:40:33.048Z,7.37
2018-06-11T03:43:01.864Z,7.67
2018-06-11T03:45:30.423Z,6.37
2018-06-11T03:47:58.948Z,6.90
2018-06-11T03:50:27.483Z,6.37
2018-06-11T03:52:56.073Z,6.73
2018-06-11T03:55:24.569Z,6.33
2018-06-11T03:57:53.116Z,6.97
2018-06-11T04:00:21.685Z,6.40
2018-06-11T04:02:50.273Z,5.17
2018-06-11T04:05:18.482Z,6.60
2018-06-11T04:07:47.069Z,7.33
2018-06-11T04:10:15.624Z,5.90
2018-06-11T04:12:44.136Z,7.50
2018-06-11T04:15:12.741Z,7.20
2018-06-11T04:17:41.322Z,6.30
2018-06-11T04:20:09.828Z,5.83
2018-06-11T04:22:38.351Z,6.37
2018-06-11T04:25:06.962Z,6.53
2018-06-11T04:27:35.469Z,6.33
2018-06-11T04:30:04.088Z,6.63
2018-06-11T04:32:32.599Z,5.40
2018-06-11T04:35:01.147Z,6.00
2018-06-11T04:37:29.737Z,6.27
2018-06-11T04:39:58.262Z,6.50
2018-06-11T04:42:26.809Z,5.97
2018-06-11T04:44:55.326Z,6.67
2018-06-11T04:47:23.856Z,6.53
2018-06-11T04:49:52.402Z,6.60
2018-06-11T04:52:20.903Z,8.30
2018-06-11T04:54:49.422Z,7.83
2018-06-11T04:57:17.591Z,7.00
2018-06-11T04:59:46.152Z,6.53
2018-06-11T05:02:14.663Z,6.40
2018-06-11T05:04:43.205Z,6.37
2018-06-11T05:07:11.777Z,6.47
2018-06-11T05:09:40.289Z,6.00
2018-06-11T05:12:08.829Z,6.17
2018-06-11T05:14:37.393Z,6.30
2018-06-11T05:17:06.000Z,6.90
2018-06-11T05:19:34.543Z,6.60
2018-06-11T05:22:03.137Z,4.93
2018-06-11T05:24:31.699Z,7.77
2018-06-11T05:27:00.248Z,6.50
2018-06-11T05:29:28.788Z,6.33
2018-06-11T05:31:57.325Z,5.87
2018-06-11T05:34:25.853Z,6.20
2018-06-11T05:36:54.392Z,6.00
2018-06-11T05:39:22.977Z,5.97
2018-06-11T05:41:51.527Z,6.17
2018-06-11T05:44:20.085Z,5.73
2018-06-11T05:46:48.653Z,5.43
2018-06-11T05:49:17.169Z,5.73
2018-06-11T05:51:45.739Z,4.60
2018-06-11T05:54:14.247Z,5.83
2018-06-11T05:56:42.740Z,5.63
2018-06-11T05:59:11.347Z,4.70
2018-06-11T06:01:39.862Z,4.40
2018-06-11T06:04:08.396Z,5.40
2018-06-11T06:06:37.007Z,4.53
2018-06-11T06:09:07.348Z,4.30
2018-06-11T06:11:35.948Z,5.03
2018-06-11T06:14:04.526Z,4.07
2018-06-11T06:16:33.201Z,4.30
2018-06-11T06:19:01.753Z,4.83
2018-06-11T06:21:30.363Z,4.40
2018-06-11T06:23:58.952Z,5.60
2018-06-11T06:26:27.841Z,4.37
2018-06-11T06:28:56.497Z,3.50
2018-06-11T06:31:25.104Z,3.83
2018-06-11T06:33:53.648Z,4.73
2018-06-11T06:36:22.163Z,4.80
2018-06-11T06:38:50.705Z,4.47
2018-06-11T06:41:19.229Z,5.10
2018-06-11T06:43:47.465Z,4.60
2018-06-11T06:46:15.980Z,5.43
2018-06-11T06:48:44.554Z,4.30
2018-06-11T06:51:13.129Z,4.33
2018-06-11T06:53:41.707Z,4.07
2018-06-11T06:56:10.201Z,5.20
2018-06-11T06:58:38.773Z,4.37
2018-06-11T07:01:07.308Z,4.27
2018-06-11T07:03:35.858Z,4.50
2018-06-11T07:06:04.388Z,4.60
2018-06-11T07:08:33.015Z,4.10
2018-06-11T07:11:01.511Z,4.27
2018-06-11T07:13:30.075Z,4.43
2018-06-11T07:15:58.623Z,3.80
2018-06-11T07:18:27.153Z,4.20
2018-06-11T07:20:55.744Z,4.00
2018-06-11T07:23:24.299Z,4.33
2018-06-11T07:25:52.907Z,3.80
2018-06-11T07:28:21.474Z,3.87
2018-06-11T07:30:50.043Z,4.70
2018-06-11T07:33:18.572Z,3.93
2018-06-11T07:35:47.177Z,4.20
2018-06-11T07:38:15.699Z,3.83
2018-06-11T07:40:44.232Z,4.17
2018-06-11T07:43:12.781Z,3.20
2018-06-11T07:45:41.312Z,3.73
2018-06-11T07:48:09.888Z,5.43
2018-06-11T07:50:38.449Z,3.90
2018-06-11T07:53:07.137Z,4.77
2018-06-11T07:55:35.662Z,4.10
2018-06-11T07:58:04.241Z,4.20
2018-06-11T08:00:32.749Z,3.33
2018-06-11T08:03:01.280Z,4.80
2018-06-11T08:05:29.807Z,5.23
2018-06-11T08:07:58.323Z,4.43
2018-06-11T08:10:26.902Z,3.60
2018-06-11T08:12:55.467Z,3.27
2018-06-11T08:15:24.003Z,4.07
2018-06-11T08:17:52.570Z,3.80
2018-06-11T08:20:21.117Z,3.57
2018-06-11T08:22:49.618Z,3.10
2018-06-11T08:25:18.153Z,4.33
2018-06-11T08:27:46.715Z,3.83
2018-06-11T08:30:15.285Z,4.20
2018-06-11T08:32:43.843Z,4.73
2018-06-11T08:35:12.469Z,3.87
2018-06-11T08:37:41.025Z,5.53
2018-06-11T08:40:09.551Z,3.60
2018-06-11T08:42:38.137Z,3.63
2018-06-11T08:45:06.679Z,3.47
2018-06-11T08:47:35.192Z,3.30
2018-06-11T08:50:03.830Z,3.70
2018-06-11T08:52:32.378Z,3.27
2018-06-11T08:55:00.912Z,3.37
2018-06-11T08:57:29.460Z,3.53
2018-06-11T08:59:58.165Z,3.53
2018-06-11T09:02:26.598Z,4.07
2018-06-11T09:04:55.189Z,4.00
2018-06-11T09:07:23.726Z,3.37
2018-06-11T09:09:52.265Z,3.30
2018-06-11T09:12:20.776Z,3.63
2018-06-11T09:14:49.333Z,3.17
2018-06-11T09:17:17.883Z,3.70
2018-06-11T09:19:46.472Z,3.67
2018-06-11T09:22:15.034Z,2.80
2018-06-11T09:24:43.565Z,3.07
2018-06-11T09:27:12.164Z,3.23
2018-06-11T09:29:40.368Z,3.97
2018-06-11T09:32:08.903Z,3.60
2018-06-11T09:34:37.459Z,3.17
2018-06-11T09:37:06.046Z,3.50
2018-06-11T09:39:34.600Z,3.30
2018-06-11T09:42:03.141Z,3.27
2018-06-11T09:44:31.659Z,5.63
2018-06-11T09:47:00.157Z,4.27
2018-06-11T09:49:28.691Z,3.50
2018-06-11T09:51:57.248Z,3.33
2018-06-11T09:54:25.773Z,3.23
2018-06-11T09:56:54.401Z,4.50
2018-06-11T09:59:22.886Z,4.73
2018-06-11T10:01:51.459Z,4.30
2018-06-11T10:04:20.047Z,4.37
2018-06-11T10:06:48.581Z,4.10
2018-06-11T10:09:17.127Z,3.77
2018-06-11T10:11:45.681Z,3.77
2018-06-11T10:14:14.193Z,3.63
2018-06-11T10:16:42.773Z,4.43
2018-06-11T10:19:11.334Z,3.60
2018-06-11T10:21:39.870Z,4.00
2018-06-11T10:24:08.402Z,4.10
2018-06-11T10:26:37.031Z,4.03
2018-06-11T10:29:05.590Z,4.00
2018-06-11T10:31:34.144Z,3.17
2018-06-11T10:34:02.689Z,3.57
2018-06-11T10:36:31.238Z,3.70
2018-06-11T10:38:59.757Z,3.60
2018-06-11T10:41:28.338Z,3.60
2018-06-11T10:43:56.872Z,3.57
2018-06-11T10:46:25.401Z,4.10
2018-06-11T10:48:54.008Z,5.30
2018-06-11T10:51:22.561Z,3.30
2018-06-11T10:53:51.097Z,3.87
2018-06-11T10:56:19.661Z,3.47
2018-06-11T10:58:48.210Z,3.70
2018-06-11T11:01:16.815Z,3.60
2018-06-11T11:03:45.042Z,3.70
2018-06-11T11:06:13.625Z,3.73
2018-06-11T11:08:42.247Z,3.10
2018-06-11T11:11:10.828Z,3.20
2018-06-11T11:13:39.392Z,4.63
2018-06-11T11:16:07.955Z,3.83
2018-06-11T11:18:36.517Z,3.60
2018-06-11T11:21:05.152Z,4.13
2018-06-11T11:23:33.691Z,3.67
2018-06-11T11:26:02.235Z,3.90
2018-06-11T11:28:30.777Z,4.73
2018-06-11T11:30:59.363Z,3.50
2018-06-11T11:33:27.953Z,5.23
2018-06-11T11:35:56.523Z,3.70
2018-06-11T11:38:25.065Z,3.83
2018-06-11T11:40:53.581Z,4.33
2018-06-11T11:43:22.141Z,3.30
2018-06-11T11:45:50.645Z,3.80
2018-06-11T11:48:19.199Z,4.37
2018-06-11T11:50:47.739Z,3.30
2018-06-11T11:53:16.263Z,3.90
2018-06-11T11:55:44.845Z,3.63
2018-06-11T11:58:13.376Z,2.80
2018-06-11T12:00:41.940Z,4.80
2018-06-11T12:03:10.526Z,4.47
2018-06-11T12:05:39.049Z,3.80
2018-06-11T12:08:07.591Z,4.40
2018-06-11T12:10:36.131Z,3.30
2018-06-11T12:13:04.318Z,3.23
2018-06-11T12:15:32.861Z,3.50
2018-06-11T12:18:01.412Z,3.23
2018-06-11T12:20:29.972Z,3.53
2018-06-11T12:22:58.556Z,3.50
2018-06-11T12:25:33.841Z,3.47
2018-06-11T12:28:02.391Z,3.50
2018-06-11T12:30:30.969Z,3.90
2018-06-11T12:32:59.524Z,3.57
2018-06-11T12:35:28.041Z,3.23
2018-06-11T12:37:56.637Z,3.67
2018-06-11T12:40:25.243Z,4.17
2018-06-11T12:42:53.904Z,4.70
2018-06-11T12:45:22.427Z,3.97
2018-06-11T12:47:51.024Z,3.60
2018-06-11T12:50:19.585Z,3.13
2018-06-11T12:52:48.156Z,4.20
2018-06-11T12:55:16.856Z,4.10
2018-06-11T12:57:45.378Z,3.77
2018-06-11T13:00:13.945Z,4.50
2018-06-11T13:02:42.499Z,4.40
2018-06-11T13:05:10.997Z,3.50
2018-06-11T13:07:39.589Z,3.72
2018-06-11T13:10:08.109Z,4.20
2018-06-11T13:12:36.688Z,4.22
2018-06-11T13:15:05.494Z,4.03
2018-06-11T13:17:34.071Z,4.83
2018-06-11T13:20:02.633Z,4.30
2018-06-11T13:22:31.196Z,3.93
2018-06-11T13:24:59.729Z,3.47
2018-06-11T13:27:28.255Z,3.67
2018-06-11T13:29:56.808Z,4.50
2018-06-11T13:32:25.356Z,4.43
2018-06-11T13:34:53.876Z,4.00
2018-06-11T13:37:22.391Z,3.70
2018-06-11T13:39:50.971Z,3.13
2018-06-11T13:42:19.506Z,4.20
2018-06-11T13:44:48.029Z,4.50
2018-06-11T13:47:16.577Z,4.57
2018-06-11T13:49:45.105Z,4.80
2018-06-11T13:52:13.603Z,4.20
2018-06-11T13:54:42.122Z,4.70
2018-06-11T13:57:10.643Z,4.40
2018-06-11T13:59:39.674Z,4.20
2018-06-11T14:02:08.249Z,4.67
2018-06-11T14:04:37.960Z,3.53
2018-06-11T14:07:07.519Z,5.60
2018-06-11T14:09:36.207Z,3.60
2018-06-11T14:12:04.812Z,4.67
2018-06-11T14:14:33.333Z,4.40
2018-06-11T14:17:05.968Z,4.90
2018-06-11T14:19:34.653Z,4.30
2018-06-11T14:22:03.202Z,4.50
2018-06-11T14:24:31.728Z,3.83
2018-06-11T14:27:00.284Z,4.53
2018-06-11T14:29:28.782Z,4.50
2018-06-11T14:31:57.297Z,3.57
2018-06-11T14:34:25.796Z,3.70
2018-06-11T14:36:54.302Z,4.23
2018-06-11T14:39:22.868Z,4.10
2018-06-11T14:41:51.411Z,3.80
2018-06-11T14:44:19.921Z,4.07
2018-06-11T14:46:48.461Z,4.20
2018-06-11T14:49:17.051Z,3.30
2018-06-11T14:51:45.596Z,3.47
2018-06-11T14:54:14.172Z,4.47
2018-06-11T14:56:42.758Z,4.50
2018-06-11T14:59:11.299Z,4.20
2018-06-11T15:01:39.842Z,4.30
2018-06-11T15:04:08.133Z,5.77
2018-06-11T15:06:36.697Z,3.93
2018-06-11T15:09:07.038Z,5.27
2018-06-11T15:11:35.624Z,3.47
2018-06-11T15:14:04.147Z,4.93
2018-06-11T15:16:32.702Z,4.83
2018-06-11T15:19:01.261Z,3.90
2018-06-11T15:21:29.843Z,4.50
2018-06-11T15:23:58.386Z,5.20
2018-06-11T15:26:26.911Z,4.87
2018-06-11T15:28:55.466Z,5.43
2018-06-11T15:31:23.990Z,4.97
2018-06-11T15:33:52.547Z,4.67
2018-06-11T15:36:21.164Z,5.20
2018-06-11T15:38:49.709Z,6.03
2018-06-11T15:41:18.252Z,4.10
2018-06-11T15:43:46.810Z,4.00
2018-06-11T15:46:15.288Z,4.57
2018-06-11T15:48:43.865Z,5.13
2018-06-11T15:51:12.419Z,4.17
2018-06-11T15:53:40.930Z,4.97
2018-06-11T15:56:09.506Z,4.20
2018-06-11T15:58:38.064Z,4.50
2018-06-11T16:01:06.901Z,3.83
2018-06-11T16:03:35.467Z,4.80
2018-06-11T16:06:04.012Z,5.17
2018-06-11T16:08:32.538Z,5.00
2018-06-11T16:11:01.116Z,13.40
2018-06-11T16:13:29.684Z,19.03
2018-06-11T16:15:58.238Z,5.60
2018-06-11T16:18:26.799Z,6.90
2018-06-11T16:20:55.342Z,6.50
2018-06-11T16:23:23.893Z,4.37
2018-06-11T16:25:52.425Z,5.03
2018-06-11T16:28:20.965Z,4.40
2018-06-11T16:30:49.480Z,5.67
2018-06-11T16:33:18.035Z,5.17
2018-06-11T16:35:46.584Z,12.47
2018-06-11T16:38:15.153Z,7.40
2018-06-11T16:40:43.724Z,4.67
2018-06-11T16:43:12.266Z,4.53
2018-06-11T16:45:40.780Z,3.67
2018-06-11T16:48:09.355Z,4.13
2018-06-11T16:50:37.900Z,4.17
2018-06-11T16:53:06.390Z,4.87
2018-06-11T16:55:34.947Z,4.00
2018-06-11T16:58:03.526Z,4.00
2018-06-11T17:00:32.055Z,3.50
2018-06-11T17:03:00.607Z,5.03
2018-06-11T17:05:29.149Z,3.97
2018-06-11T17:07:57.650Z,4.73
2018-06-11T17:10:26.183Z,4.33
2018-06-11T17:12:54.702Z,3.87
2018-06-11T17:15:23.249Z,4.93
2018-06-11T17:17:51.797Z,4.00
2018-06-11T17:20:20.353Z,4.37
2018-06-11T17:22:48.913Z,4.07
2018-06-11T17:25:17.488Z,4.40
2018-06-11T17:27:46.007Z,3.37
2018-06-11T17:30:14.501Z,4.23
2018-06-11T17:32:43.044Z,4.10
2018-06-11T17:35:12.004Z,5.43
2018-06-11T17:37:40.568Z,3.40
2018-06-11T17:40:11.869Z,3.87
2018-06-11T17:42:40.416Z,3.93
2018-06-11T17:45:08.932Z,3.33
2018-06-11T17:47:37.504Z,3.50
2018-06-11T17:50:06.077Z,5.70
2018-06-11T17:52:34.751Z,3.60
2018-06-11T17:55:03.367Z,3.70
2018-06-11T17:57:31.935Z,3.87
2018-06-11T18:00:00.487Z,3.67
2018-06-11T18:02:29.023Z,4.27
2018-06-11T18:04:57.564Z,3.60
2018-06-11T18:07:26.105Z,4.50
2018-06-11T18:09:54.673Z,3.97
2018-06-11T18:12:23.205Z,4.97
2018-06-11T18:14:51.738Z,3.97
2018-06-11T18:17:20.409Z,5.30
2018-06-11T18:19:48.957Z,3.33
2018-06-11T18:22:17.528Z,5.23
2018-06-11T18:24:46.054Z,3.80
2018-06-11T18:27:14.614Z,4.10
2018-06-11T18:29:43.120Z,4.27
2018-06-11T18:32:11.675Z,4.90
2018-06-11T18:34:40.186Z,3.90
2018-06-11T18:37:08.696Z,5.03
2018-06-11T18:39:37.211Z,4.20
2018-06-11T18:42:05.776Z,4.50
2018-06-11T18:44:34.339Z,3.97
2018-06-11T18:47:03.129Z,4.07
2018-06-11T18:49:31.680Z,4.33
2018-06-11T18:52:00.195Z,4.43
2018-06-11T18:54:28.745Z,4.37
2018-06-11T18:56:58.120Z,4.20
2018-06-11T18:59:26.673Z,4.57
2018-06-11T19:01:55.195Z,6.13
2018-06-11T19:04:23.731Z,5.50
2018-06-11T19:06:52.276Z,5.03
2018-06-11T19:09:20.836Z,4.83
2018-06-11T19:11:49.409Z,6.30
2018-06-11T19:14:17.945Z,6.67
2018-06-11T19:16:46.611Z,4.80
2018-06-11T19:19:15.166Z,5.17
2018-06-11T19:21:43.730Z,5.13
2018-06-11T19:24:12.310Z,4.83
2018-06-11T19:26:40.852Z,5.00
2018-06-11T19:29:09.429Z,5.93
2018-06-11T19:31:38.013Z,4.77
2018-06-11T19:34:06.575Z,5.10
2018-06-11T19:36:35.753Z,5.20
2018-06-11T19:39:05.913Z,4.70
2018-06-11T19:41:36.448Z,4.20
2018-06-11T19:44:05.005Z,4.87
2018-06-11T19:46:33.516Z,4.67
2018-06-11T19:49:02.394Z,4.47
2018-06-11T19:51:30.914Z,5.70
2018-06-11T19:53:59.426Z,6.40
2018-06-11T19:56:27.957Z,5.00
2018-06-11T19:58:56.572Z,6.03
2018-06-11T20:01:25.096Z,5.73
2018-06-11T20:03:53.634Z,5.93
2018-06-11T20:06:22.214Z,5.30
2018-06-11T20:08:50.816Z,6.27
2018-06-11T20:11:19.288Z,5.40
2018-06-11T20:13:47.855Z,5.17
2018-06-11T20:16:16.409Z,4.00
2018-06-11T20:18:45.031Z,5.67
2018-06-11T20:21:13.682Z,4.97
2018-06-11T20:23:42.270Z,5.60
2018-06-11T20:26:11.457Z,4.30
2018-06-11T20:28:40.021Z,5.03
2018-06-11T20:31:08.594Z,5.50
2018-06-11T20:33:37.173Z,5.23
2018-06-11T20:36:05.768Z,4.90
2018-06-11T20:38:34.397Z,4.83
2018-06-11T20:41:02.976Z,5.30
2018-06-11T20:43:31.529Z,4.70
2018-06-11T20:46:00.133Z,5.23
2018-06-11T20:48:28.336Z,5.63
2018-06-11T20:50:56.973Z,5.70
2018-06-11T20:53:25.520Z,5.57
2018-06-11T20:55:54.083Z,5.40
2018-06-11T20:58:22.638Z,5.50
2018-06-11T21:00:51.179Z,5.70
2018-06-11T21:03:19.744Z,5.40
2018-06-11T21:05:48.296Z,6.43
2018-06-11T21:08:16.854Z,5.07
2018-06-11T21:10:45.465Z,5.50
2018-06-11T21:13:14.053Z,6.40
2018-06-11T21:15:42.593Z,5.90
2018-06-11T21:18:11.207Z,5.20
2018-06-11T21:20:39.788Z,6.20
2018-06-11T21:23:08.313Z,5.93
2018-06-11T21:25:36.835Z,5.43
2018-06-11T21:28:05.457Z,6.63
2018-06-11T21:30:34.017Z,5.30
2018-06-11T21:33:02.556Z,4.90
2018-06-11T21:35:31.164Z,5.40
2018-06-11T21:37:59.744Z,6.30
2018-06-11T21:40:28.315Z,5.00
2018-06-11T21:42:56.914Z,5.87
2018-06-11T21:45:25.460Z,6.57
2018-06-11T21:47:54.000Z,4.60
2018-06-11T21:50:22.590Z,6.23
2018-06-11T21:52:51.122Z,5.30
2018-06-11T21:55:19.646Z,4.93
2018-06-11T21:57:48.211Z,5.00
2018-06-11T22:00:16.796Z,5.13
2018-06-11T22:02:45.315Z,4.20
2018-06-11T22:05:13.892Z,5.20
2018-06-11T22:07:42.448Z,4.73
2018-06-11T22:10:10.978Z,5.50
2018-06-11T22:12:39.553Z,4.70
2018-06-11T22:15:08.125Z,4.40
2018-06-11T22:17:36.697Z,4.40
2018-06-11T22:20:05.271Z,3.60
2018-06-11T22:22:33.865Z,4.13
2018-06-11T22:25:02.412Z,3.73
2018-06-11T22:27:31.018Z,3.60
2018-06-11T22:29:59.575Z,3.60
2018-06-11T22:32:28.100Z,3.93
2018-06-11T22:34:56.689Z,4.00
2018-06-11T22:37:25.422Z,3.47
2018-06-11T22:39:53.938Z,3.40
2018-06-11T22:42:22.544Z,5.03
2018-06-11T22:44:51.065Z,3.93
2018-06-11T22:47:19.642Z,4.33
2018-06-11T22:49:48.221Z,3.83
2018-06-11T22:52:16.761Z,4.60
2018-06-11T22:54:45.308Z,4.17
2018-06-11T22:57:14.844Z,4.30
2018-06-11T22:59:43.335Z,4.97
2018-06-11T23:02:11.892Z,4.17
2018-06-11T23:04:40.447Z,3.57
2018-06-11T23:07:09.038Z,4.70
2018-06-11T23:09:37.568Z,4.00
2018-06-11T23:12:06.156Z,4.40
2018-06-11T23:14:34.685Z,4.53
2018-06-11T23:17:03.330Z,4.10
2018-06-11T23:19:31.915Z,4.63
2018-06-11T23:22:02.402Z,3.50
2018-06-11T23:24:30.983Z,3.27
2018-06-11T23:26:59.545Z,3.73
2018-06-11T23:29:28.089Z,4.43
2018-06-11T23:31:56.682Z,3.97
2018-06-11T23:34:25.208Z,3.37
2018-06-11T23:36:53.776Z,3.87
2018-06-11T23:39:22.407Z,4.10
2018-06-11T23:50:23.044Z,3.17
2018-06-11T23:52:51.640Z,5.07
2018-06-11T23:55:20.244Z,4.13
2018-06-11T23:57:48.897Z,4.57
